sensor_id;sensor_type;location;lat;lon;timestamp;temperature;humidity
1355;DHT22;671;48.972;9.276;2023-07-20T00:01:34;20.90;87.10
1355;DHT22;671;48.972;9.276;2023-07-20T00:04:00;20.80;86.90
1355;DHT22;671;48.972;9.276;2023-07-20T00:06:27;20.70;86.60
1355;DHT22;671;48.972;9.276;2023-07-20T00:08:56;20.70;86.90
1355;DHT22;671;48.972;9.276;2023-07-20T00:11:27;20.70;87.40
1355;DHT22;671;48.972;9.276;2023-07-20T00:13:53;20.60;87.30
1355;DHT22;671;48.972;9.276;2023-07-20T00:16:20;20.60;87.30
1355;DHT22;671;48.972;9.276;2023-07-20T00:18:46;20.60;87.40
1355;DHT22;671;48.972;9.276;2023-07-20T00:21:13;20.70;87.50
1355;DHT22;671;48.972;9.276;2023-07-20T00:23:39;20.60;87.60
1355;DHT22;671;48.972;9.276;2023-07-20T00:26:06;20.60;87.70
1355;DHT22;671;48.972;9.276;2023-07-20T00:28:32;20.60;88.10
1355;DHT22;671;48.972;9.276;2023-07-20T00:30:59;20.50;88.10
1355;DHT22;671;48.972;9.276;2023-07-20T00:33:26;20.50;88.20
1355;DHT22;671;48.972;9.276;2023-07-20T00:35:53;20.50;88.50
1355;DHT22;671;48.972;9.276;2023-07-20T00:38:19;20.40;88.60
1355;DHT22;671;48.972;9.276;2023-07-20T00:40:46;20.40;88.60
1355;DHT22;671;48.972;9.276;2023-07-20T00:43:14;20.30;88.70
1355;DHT22;671;48.972;9.276;2023-07-20T00:45:42;20.20;88.80
1355;DHT22;671;48.972;9.276;2023-07-20T00:48:09;20.20;89.30
1355;DHT22;671;48.972;9.276;2023-07-20T00:50:36;20.10;89.50
1355;DHT22;671;48.972;9.276;2023-07-20T00:53:04;20.00;89.60
1355;DHT22;671;48.972;9.276;2023-07-20T00:55:31;19.90;89.60
1355;DHT22;671;48.972;9.276;2023-07-20T00:57:59;19.90;89.60
1355;DHT22;671;48.972;9.276;2023-07-20T01:00:26;19.80;90.00
1355;DHT22;671;48.972;9.276;2023-07-20T01:02:52;19.80;90.00
1355;DHT22;671;48.972;9.276;2023-07-20T01:05:19;19.70;90.10
1355;DHT22;671;48.972;9.276;2023-07-20T01:08:01;19.70;90.30
1355;DHT22;671;48.972;9.276;2023-07-20T01:11:10;19.60;90.40
1355;DHT22;671;48.972;9.276;2023-07-20T01:13:38;19.60;90.50
1355;DHT22;671;48.972;9.276;2023-07-20T01:16:05;19.60;90.70
1355;DHT22;671;48.972;9.276;2023-07-20T01:18:32;19.50;90.70
1355;DHT22;671;48.972;9.276;2023-07-20T01:21:05;19.50;90.90
1355;DHT22;671;48.972;9.276;2023-07-20T01:29:20;19.40;91.30
1355;DHT22;671;48.972;9.276;2023-07-20T01:31:52;19.30;91.40
1355;DHT22;671;48.972;9.276;2023-07-20T01:34:19;19.30;91.50
1355;DHT22;671;48.972;9.276;2023-07-20T01:36:50;19.20;91.70
1355;DHT22;671;48.972;9.276;2023-07-20T01:39:19;19.20;91.90
1355;DHT22;671;48.972;9.276;2023-07-20T01:41:47;19.10;91.90
1355;DHT22;671;48.972;9.276;2023-07-20T01:44:13;19.10;92.00
1355;DHT22;671;48.972;9.276;2023-07-20T01:46:40;19.00;92.00
1355;DHT22;671;48.972;9.276;2023-07-20T01:49:06;19.00;92.20
1355;DHT22;671;48.972;9.276;2023-07-20T01:51:33;19.00;92.40
1355;DHT22;671;48.972;9.276;2023-07-20T01:53:59;18.90;92.40
1355;DHT22;671;48.972;9.276;2023-07-20T01:56:26;18.90;92.70
1355;DHT22;671;48.972;9.276;2023-07-20T01:58:52;18.90;92.70
1355;DHT22;671;48.972;9.276;2023-07-20T02:01:19;18.80;92.80
1355;DHT22;671;48.972;9.276;2023-07-20T02:03:45;18.80;93.10
1355;DHT22;671;48.972;9.276;2023-07-20T02:06:12;18.70;93.00
1355;DHT22;671;48.972;9.276;2023-07-20T02:08:38;18.70;93.00
1355;DHT22;671;48.972;9.276;2023-07-20T02:11:05;18.70;93.10
1355;DHT22;671;48.972;9.276;2023-07-20T02:13:31;18.60;93.30
1355;DHT22;671;48.972;9.276;2023-07-20T02:15:58;18.60;93.50
1355;DHT22;671;48.972;9.276;2023-07-20T02:18:24;18.50;93.60
1355;DHT22;671;48.972;9.276;2023-07-20T02:20:53;18.50;93.70
1355;DHT22;671;48.972;9.276;2023-07-20T02:23:20;18.50;93.80
1355;DHT22;671;48.972;9.276;2023-07-20T02:25:47;18.50;94.30
1355;DHT22;671;48.972;9.276;2023-07-20T02:28:14;18.40;94.20
1355;DHT22;671;48.972;9.276;2023-07-20T02:30:41;18.40;94.30
1355;DHT22;671;48.972;9.276;2023-07-20T02:33:07;18.30;94.40
1355;DHT22;671;48.972;9.276;2023-07-20T02:35:34;18.30;94.60
1355;DHT22;671;48.972;9.276;2023-07-20T02:38:01;18.20;94.60
1355;DHT22;671;48.972;9.276;2023-07-20T02:40:27;18.20;94.70
1355;DHT22;671;48.972;9.276;2023-07-20T02:42:54;18.10;94.70
1355;DHT22;671;48.972;9.276;2023-07-20T02:45:20;18.10;94.90
1355;DHT22;671;48.972;9.276;2023-07-20T02:47:47;18.10;95.00
1355;DHT22;671;48.972;9.276;2023-07-20T02:50:13;18.00;95.10
1355;DHT22;671;48.972;9.276;2023-07-20T02:52:40;18.00;95.30
1355;DHT22;671;48.972;9.276;2023-07-20T02:55:07;18.00;95.40
1355;DHT22;671;48.972;9.276;2023-07-20T02:57:34;18.00;95.50
1355;DHT22;671;48.972;9.276;2023-07-20T03:00:01;18.00;95.60
1355;DHT22;671;48.972;9.276;2023-07-20T03:02:29;17.90;95.60
1355;DHT22;671;48.972;9.276;2023-07-20T03:04:56;17.90;95.80
1355;DHT22;671;48.972;9.276;2023-07-20T03:07:23;17.90;96.10
1355;DHT22;671;48.972;9.276;2023-07-20T03:09:50;17.80;96.30
1355;DHT22;671;48.972;9.276;2023-07-20T03:12:17;17.80;96.40
1355;DHT22;671;48.972;9.276;2023-07-20T03:14:44;17.70;96.50
1355;DHT22;671;48.972;9.276;2023-07-20T03:17:10;17.70;96.50
1355;DHT22;671;48.972;9.276;2023-07-20T03:19:37;17.70;96.80
1355;DHT22;671;48.972;9.276;2023-07-20T03:22:03;17.60;96.90
1355;DHT22;671;48.972;9.276;2023-07-20T03:24:30;17.60;97.10
1355;DHT22;671;48.972;9.276;2023-07-20T03:26:56;17.50;97.20
1355;DHT22;671;48.972;9.276;2023-07-20T03:29:23;17.50;97.60
1355;DHT22;671;48.972;9.276;2023-07-20T03:31:49;17.40;97.70
1355;DHT22;671;48.972;9.276;2023-07-20T03:34:16;17.40;97.80
1355;DHT22;671;48.972;9.276;2023-07-20T03:36:43;17.40;98.00
1355;DHT22;671;48.972;9.276;2023-07-20T03:39:09;17.40;98.30
1355;DHT22;671;48.972;9.276;2023-07-20T03:41:36;17.40;98.50
1355;DHT22;671;48.972;9.276;2023-07-20T03:44:03;17.30;98.50
1355;DHT22;671;48.972;9.276;2023-07-20T03:46:30;17.30;98.60
1355;DHT22;671;48.972;9.276;2023-07-20T03:48:57;17.30;98.70
1355;DHT22;671;48.972;9.276;2023-07-20T03:51:23;17.30;99.00
1355;DHT22;671;48.972;9.276;2023-07-20T03:53:50;17.30;99.20
1355;DHT22;671;48.972;9.276;2023-07-20T03:56:16;17.30;99.40
1355;DHT22;671;48.972;9.276;2023-07-20T03:58:43;17.30;99.50
1355;DHT22;671;48.972;9.276;2023-07-20T04:01:09;17.30;99.80
1355;DHT22;671;48.972;9.276;2023-07-20T04:03:36;17.30;99.70
1355;DHT22;671;48.972;9.276;2023-07-20T04:06:02;17.30;99.70
1355;DHT22;671;48.972;9.276;2023-07-20T04:08:29;17.30;99.90
1355;DHT22;671;48.972;9.276;2023-07-20T04:10:55;17.40;99.90
1355;DHT22;671;48.972;9.276;2023-07-20T04:13:22;17.30;99.90
1355;DHT22;671;48.972;9.276;2023-07-20T04:15:48;17.40;99.90
1355;DHT22;671;48.972;9.276;2023-07-20T04:18:15;17.30;99.90
1355;DHT22;671;48.972;9.276;2023-07-20T04:20:41;17.50;99.90
1355;DHT22;671;48.972;9.276;2023-07-20T04:23:08;17.40;99.90
1355;DHT22;671;48.972;9.276;2023-07-20T04:25:35;17.40;99.90
1355;DHT22;671;48.972;9.276;2023-07-20T04:28:06;17.50;99.90
1355;DHT22;671;48.972;9.276;2023-07-20T04:30:37;17.50;99.90
1355;DHT22;671;48.972;9.276;2023-07-20T04:33:03;17.50;99.90
1355;DHT22;671;48.972;9.276;2023-07-20T04:38:16;17.50;99.90
1355;DHT22;671;48.972;9.276;2023-07-20T04:40:48;17.60;99.90
1355;DHT22;671;48.972;9.276;2023-07-20T04:43:15;17.70;99.90
1355;DHT22;671;48.972;9.276;2023-07-20T04:45:42;17.80;99.90
1355;DHT22;671;48.972;9.276;2023-07-20T04:48:10;17.80;99.90
1355;DHT22;671;48.972;9.276;2023-07-20T04:50:38;17.90;99.90
1355;DHT22;671;48.972;9.276;2023-07-20T04:53:05;17.90;99.90
1355;DHT22;671;48.972;9.276;2023-07-20T04:55:31;17.90;99.90
1355;DHT22;671;48.972;9.276;2023-07-20T04:58:00;17.90;99.90
1355;DHT22;671;48.972;9.276;2023-07-20T05:00:27;18.00;99.90
1355;DHT22;671;48.972;9.276;2023-07-20T05:02:53;18.00;99.90
1355;DHT22;671;48.972;9.276;2023-07-20T05:05:20;18.00;99.90
1355;DHT22;671;48.972;9.276;2023-07-20T05:07:46;18.10;99.90
1355;DHT22;671;48.972;9.276;2023-07-20T05:10:13;18.10;99.90
1355;DHT22;671;48.972;9.276;2023-07-20T05:12:39;18.10;99.90
1355;DHT22;671;48.972;9.276;2023-07-20T05:15:06;18.20;99.90
1355;DHT22;671;48.972;9.276;2023-07-20T05:17:33;18.20;99.90
1355;DHT22;671;48.972;9.276;2023-07-20T05:19:59;18.30;99.90
1355;DHT22;671;48.972;9.276;2023-07-20T05:22:26;18.30;99.90
1355;DHT22;671;48.972;9.276;2023-07-20T05:24:52;18.40;99.90
1355;DHT22;671;48.972;9.276;2023-07-20T05:27:19;19.20;99.90
1355;DHT22;671;48.972;9.276;2023-07-20T05:29:46;20.70;99.90
1355;DHT22;671;48.972;9.276;2023-07-20T05:32:13;22.00;98.20
1355;DHT22;671;48.972;9.276;2023-07-20T05:34:40;23.00;96.90
1355;DHT22;671;48.972;9.276;2023-07-20T05:37:06;23.70;95.50
1355;DHT22;671;48.972;9.276;2023-07-20T05:39:33;24.20;94.30
1355;DHT22;671;48.972;9.276;2023-07-20T05:41:59;24.50;93.80
1355;DHT22;671;48.972;9.276;2023-07-20T05:44:26;24.90;93.00
1355;DHT22;671;48.972;9.276;2023-07-20T05:46:52;25.20;92.50
1355;DHT22;671;48.972;9.276;2023-07-20T05:49:19;25.40;91.80
1355;DHT22;671;48.972;9.276;2023-07-20T05:51:45;25.50;91.60
1355;DHT22;671;48.972;9.276;2023-07-20T05:54:13;25.40;91.50
1355;DHT22;671;48.972;9.276;2023-07-20T05:56:39;25.10;92.10
1355;DHT22;671;48.972;9.276;2023-07-20T05:59:06;24.10;92.00
1355;DHT22;671;48.972;9.276;2023-07-20T06:01:32;23.40;92.80
1355;DHT22;671;48.972;9.276;2023-07-20T06:03:59;22.80;93.30
1355;DHT22;671;48.972;9.276;2023-07-20T06:06:25;22.50;94.00
1355;DHT22;671;48.972;9.276;2023-07-20T06:08:52;22.20;94.60
1355;DHT22;671;48.972;9.276;2023-07-20T06:11:18;22.00;94.90
1355;DHT22;671;48.972;9.276;2023-07-20T06:13:45;21.90;95.10
1355;DHT22;671;48.972;9.276;2023-07-20T06:16:11;21.90;95.20
1355;DHT22;671;48.972;9.276;2023-07-20T06:18:38;21.80;95.40
1355;DHT22;671;48.972;9.276;2023-07-20T06:21:04;21.70;95.50
1355;DHT22;671;48.972;9.276;2023-07-20T06:23:31;21.70;95.90
1355;DHT22;671;48.972;9.276;2023-07-20T06:25:58;21.70;96.00
1355;DHT22;671;48.972;9.276;2023-07-20T06:28:24;21.80;96.00
1355;DHT22;671;48.972;9.276;2023-07-20T06:30:51;21.80;95.50
1355;DHT22;671;48.972;9.276;2023-07-20T06:33:17;21.80;95.80
1355;DHT22;671;48.972;9.276;2023-07-20T06:35:44;21.80;95.50
1355;DHT22;671;48.972;9.276;2023-07-20T06:38:10;21.80;95.40
1355;DHT22;671;48.972;9.276;2023-07-20T06:40:37;21.90;95.80
1355;DHT22;671;48.972;9.276;2023-07-20T06:43:03;22.00;95.60
1355;DHT22;671;48.972;9.276;2023-07-20T06:45:30;21.90;95.70
1355;DHT22;671;48.972;9.276;2023-07-20T06:47:56;22.00;95.80
1355;DHT22;671;48.972;9.276;2023-07-20T06:50:23;22.00;95.40
1355;DHT22;671;48.972;9.276;2023-07-20T06:52:49;22.10;95.60
1355;DHT22;671;48.972;9.276;2023-07-20T06:55:16;22.20;95.30
1355;DHT22;671;48.972;9.276;2023-07-20T06:57:42;22.20;95.00
1355;DHT22;671;48.972;9.276;2023-07-20T07:00:09;22.20;95.00
1355;DHT22;671;48.972;9.276;2023-07-20T07:02:36;22.30;95.10
1355;DHT22;671;48.972;9.276;2023-07-20T07:05:03;22.20;94.90
1355;DHT22;671;48.972;9.276;2023-07-20T07:07:29;22.20;94.70
1355;DHT22;671;48.972;9.276;2023-07-20T07:09:56;22.30;95.00
1355;DHT22;671;48.972;9.276;2023-07-20T07:12:22;22.40;94.70
1355;DHT22;671;48.972;9.276;2023-07-20T07:14:49;22.40;94.70
1355;DHT22;671;48.972;9.276;2023-07-20T07:17:15;22.40;95.50
1355;DHT22;671;48.972;9.276;2023-07-20T07:19:42;22.50;95.40
1355;DHT22;671;48.972;9.276;2023-07-20T07:22:08;22.60;94.90
1355;DHT22;671;48.972;9.276;2023-07-20T07:24:35;22.80;95.40
1355;DHT22;671;48.972;9.276;2023-07-20T07:27:02;22.90;94.70
1355;DHT22;671;48.972;9.276;2023-07-20T07:29:30;23.00;95.00
1355;DHT22;671;48.972;9.276;2023-07-20T07:31:56;22.90;94.70
1355;DHT22;671;48.972;9.276;2023-07-20T07:34:23;23.00;94.70
1355;DHT22;671;48.972;9.276;2023-07-20T07:36:49;22.90;94.20
1355;DHT22;671;48.972;9.276;2023-07-20T07:39:17;22.90;94.90
1355;DHT22;671;48.972;9.276;2023-07-20T07:41:43;23.00;95.00
1355;DHT22;671;48.972;9.276;2023-07-20T07:44:10;23.10;94.40
1355;DHT22;671;48.972;9.276;2023-07-20T07:46:36;23.10;95.00
1355;DHT22;671;48.972;9.276;2023-07-20T07:49:03;23.20;94.40
1355;DHT22;671;48.972;9.276;2023-07-20T07:51:30;23.20;94.70
1355;DHT22;671;48.972;9.276;2023-07-20T07:53:56;23.30;94.50
1355;DHT22;671;48.972;9.276;2023-07-20T07:56:23;23.30;94.20
1355;DHT22;671;48.972;9.276;2023-07-20T07:58:50;23.40;94.30
1355;DHT22;671;48.972;9.276;2023-07-20T08:01:18;23.50;94.00
1355;DHT22;671;48.972;9.276;2023-07-20T08:03:48;23.70;93.90
1355;DHT22;671;48.972;9.276;2023-07-20T08:06:15;23.90;93.40
1355;DHT22;671;48.972;9.276;2023-07-20T08:08:42;24.00;92.60
1355;DHT22;671;48.972;9.276;2023-07-20T08:11:11;24.10;93.00
1355;DHT22;671;48.972;9.276;2023-07-20T08:13:37;24.30;93.10
1355;DHT22;671;48.972;9.276;2023-07-20T08:16:04;24.50;92.40
1355;DHT22;671;48.972;9.276;2023-07-20T08:18:31;24.60;92.80
1355;DHT22;671;48.972;9.276;2023-07-20T08:20:57;24.70;92.30
1355;DHT22;671;48.972;9.276;2023-07-20T08:23:24;24.90;91.80
1355;DHT22;671;48.972;9.276;2023-07-20T08:25:50;24.90;91.90
1355;DHT22;671;48.972;9.276;2023-07-20T08:28:17;24.90;92.00
1355;DHT22;671;48.972;9.276;2023-07-20T08:30:48;24.80;91.30
1355;DHT22;671;48.972;9.276;2023-07-20T08:33:20;25.10;91.50
1355;DHT22;671;48.972;9.276;2023-07-20T08:35:47;25.50;90.60
1355;DHT22;671;48.972;9.276;2023-07-20T08:38:13;25.70;90.00
1355;DHT22;671;48.972;9.276;2023-07-20T08:40:42;25.60;88.50
1355;DHT22;671;48.972;9.276;2023-07-20T08:43:13;25.30;89.10
1355;DHT22;671;48.972;9.276;2023-07-20T08:45:40;25.30;90.20
1355;DHT22;671;48.972;9.276;2023-07-20T08:48:08;25.10;90.10
1355;DHT22;671;48.972;9.276;2023-07-20T08:50:35;25.10;90.70
1355;DHT22;671;48.972;9.276;2023-07-20T08:53:02;25.20;91.10
1355;DHT22;671;48.972;9.276;2023-07-20T08:55:30;25.20;90.70
1355;DHT22;671;48.972;9.276;2023-07-20T08:57:58;25.00;90.10
1355;DHT22;671;48.972;9.276;2023-07-20T09:00:26;24.80;90.00
1355;DHT22;671;48.972;9.276;2023-07-20T09:02:54;24.90;88.90
1355;DHT22;671;48.972;9.276;2023-07-20T09:05:23;25.10;86.10
1355;DHT22;671;48.972;9.276;2023-07-20T09:07:51;25.40;86.30
1355;DHT22;671;48.972;9.276;2023-07-20T09:10:22;25.60;85.70
1355;DHT22;671;48.972;9.276;2023-07-20T09:12:49;25.80;86.00
1355;DHT22;671;48.972;9.276;2023-07-20T09:15:16;25.80;86.60
1355;DHT22;671;48.972;9.276;2023-07-20T09:17:46;25.70;83.20
1355;DHT22;671;48.972;9.276;2023-07-20T09:20:15;25.80;80.70
1355;DHT22;671;48.972;9.276;2023-07-20T09:22:43;25.70;81.50
1355;DHT22;671;48.972;9.276;2023-07-20T09:25:15;25.50;81.00
1355;DHT22;671;48.972;9.276;2023-07-20T09:27:47;25.50;80.00
1355;DHT22;671;48.972;9.276;2023-07-20T09:30:15;25.70;81.10
1355;DHT22;671;48.972;9.276;2023-07-20T09:32:43;26.00;83.20
1355;DHT22;671;48.972;9.276;2023-07-20T09:35:14;25.90;80.20
1355;DHT22;671;48.972;9.276;2023-07-20T09:37:46;25.80;80.50
1355;DHT22;671;48.972;9.276;2023-07-20T09:40:17;25.90;81.10
1355;DHT22;671;48.972;9.276;2023-07-20T09:42:44;26.10;78.60
1355;DHT22;671;48.972;9.276;2023-07-20T09:45:10;26.10;79.90
1355;DHT22;671;48.972;9.276;2023-07-20T09:47:38;26.10;79.10
1355;DHT22;671;48.972;9.276;2023-07-20T09:50:05;26.10;79.10
1355;DHT22;671;48.972;9.276;2023-07-20T09:52:38;26.10;77.70
1355;DHT22;671;48.972;9.276;2023-07-20T09:55:07;26.20;77.80
1355;DHT22;671;48.972;9.276;2023-07-20T09:57:34;26.20;77.10
1355;DHT22;671;48.972;9.276;2023-07-20T10:00:06;26.10;77.30
1355;DHT22;671;48.972;9.276;2023-07-20T10:02:46;26.10;77.80
1355;DHT22;671;48.972;9.276;2023-07-20T10:05:14;26.30;75.70
1355;DHT22;671;48.972;9.276;2023-07-20T10:07:47;26.50;76.80
1355;DHT22;671;48.972;9.276;2023-07-20T10:10:18;26.60;75.50
1355;DHT22;671;48.972;9.276;2023-07-20T10:12:47;26.60;75.50
1355;DHT22;671;48.972;9.276;2023-07-20T10:15:24;26.60;74.40
1355;DHT22;671;48.972;9.276;2023-07-20T10:20:27;26.40;75.60
1355;DHT22;671;48.972;9.276;2023-07-20T10:22:54;26.30;76.50
1355;DHT22;671;48.972;9.276;2023-07-20T10:25:24;26.50;75.30
1355;DHT22;671;48.972;9.276;2023-07-20T10:27:51;26.70;74.30
1355;DHT22;671;48.972;9.276;2023-07-20T10:30:18;26.80;74.50
1355;DHT22;671;48.972;9.276;2023-07-20T10:32:46;26.70;73.20
1355;DHT22;671;48.972;9.276;2023-07-20T10:35:15;26.90;71.70
1355;DHT22;671;48.972;9.276;2023-07-20T10:37:55;27.00;72.10
1355;DHT22;671;48.972;9.276;2023-07-20T10:40:38;27.20;73.50
1355;DHT22;671;48.972;9.276;2023-07-20T10:43:06;27.40;73.70
1355;DHT22;671;48.972;9.276;2023-07-20T10:45:53;27.20;74.90
1355;DHT22;671;48.972;9.276;2023-07-20T10:48:22;27.20;73.40
1355;DHT22;671;48.972;9.276;2023-07-20T10:53:37;27.40;72.20
1355;DHT22;671;48.972;9.276;2023-07-20T10:56:14;27.50;71.30
1355;DHT22;671;48.972;9.276;2023-07-20T10:58:41;27.40;71.70
1355;DHT22;671;48.972;9.276;2023-07-20T11:01:08;27.20;71.60
1355;DHT22;671;48.972;9.276;2023-07-20T11:03:39;27.20;70.10
1355;DHT22;671;48.972;9.276;2023-07-20T11:09:02;27.20;71.90
1355;DHT22;671;48.972;9.276;2023-07-20T11:11:31;27.10;71.10
1355;DHT22;671;48.972;9.276;2023-07-20T11:14:00;27.20;70.60
1355;DHT22;671;48.972;9.276;2023-07-20T11:19:04;27.30;73.10
1355;DHT22;671;48.972;9.276;2023-07-20T11:21:37;27.40;72.50
1355;DHT22;671;48.972;9.276;2023-07-20T11:24:05;27.30;71.50
1355;DHT22;671;48.972;9.276;2023-07-20T11:26:54;27.20;71.80
1355;DHT22;671;48.972;9.276;2023-07-20T11:29:22;27.00;71.40
1355;DHT22;671;48.972;9.276;2023-07-20T11:31:49;26.80;71.40
1355;DHT22;671;48.972;9.276;2023-07-20T11:34:19;26.70;70.80
1355;DHT22;671;48.972;9.276;2023-07-20T11:36:48;26.70;70.70
1355;DHT22;671;48.972;9.276;2023-07-20T11:39:16;26.80;70.80
1355;DHT22;671;48.972;9.276;2023-07-20T11:41:50;26.90;71.40
1355;DHT22;671;48.972;9.276;2023-07-20T11:44:17;27.00;69.90
1355;DHT22;671;48.972;9.276;2023-07-20T11:46:44;26.90;72.30
1355;DHT22;671;48.972;9.276;2023-07-20T11:49:11;26.80;73.50
1355;DHT22;671;48.972;9.276;2023-07-20T11:51:40;26.90;72.10
1355;DHT22;671;48.972;9.276;2023-07-20T11:54:07;26.90;71.40
1355;DHT22;671;48.972;9.276;2023-07-20T11:56:34;26.80;71.90
1355;DHT22;671;48.972;9.276;2023-07-20T11:59:01;26.90;70.80
1355;DHT22;671;48.972;9.276;2023-07-20T12:01:30;27.00;70.00
1355;DHT22;671;48.972;9.276;2023-07-20T12:03:59;26.90;71.10
1355;DHT22;671;48.972;9.276;2023-07-20T12:06:28;27.00;71.50
1355;DHT22;671;48.972;9.276;2023-07-20T12:08:56;27.10;73.80
1355;DHT22;671;48.972;9.276;2023-07-20T12:11:38;27.30;72.20
1355;DHT22;671;48.972;9.276;2023-07-20T12:14:09;27.20;70.60
1355;DHT22;671;48.972;9.276;2023-07-20T12:16:36;27.00;70.70
1355;DHT22;671;48.972;9.276;2023-07-20T12:19:11;26.70;70.50
1355;DHT22;671;48.972;9.276;2023-07-20T12:21:40;26.90;70.30
1355;DHT22;671;48.972;9.276;2023-07-20T12:24:07;26.90;71.80
1355;DHT22;671;48.972;9.276;2023-07-20T12:26:35;27.30;71.20
1355;DHT22;671;48.972;9.276;2023-07-20T12:29:02;27.60;67.70
1355;DHT22;671;48.972;9.276;2023-07-20T12:31:30;27.70;68.40
1355;DHT22;671;48.972;9.276;2023-07-20T12:33:57;27.90;67.20
1355;DHT22;671;48.972;9.276;2023-07-20T12:36:25;28.10;65.90
1355;DHT22;671;48.972;9.276;2023-07-20T12:38:51;28.10;66.30
1355;DHT22;671;48.972;9.276;2023-07-20T12:41:18;28.20;67.30
1355;DHT22;671;48.972;9.276;2023-07-20T12:43:45;28.30;64.40
1355;DHT22;671;48.972;9.276;2023-07-20T12:46:12;28.30;65.40
1355;DHT22;671;48.972;9.276;2023-07-20T12:48:40;28.30;64.90
1355;DHT22;671;48.972;9.276;2023-07-20T12:51:09;28.50;65.00
1355;DHT22;671;48.972;9.276;2023-07-20T12:53:35;28.50;65.60
1355;DHT22;671;48.972;9.276;2023-07-20T12:56:02;28.50;65.10
1355;DHT22;671;48.972;9.276;2023-07-20T12:58:28;28.30;65.30
1355;DHT22;671;48.972;9.276;2023-07-20T13:00:55;28.20;64.80
1355;DHT22;671;48.972;9.276;2023-07-20T13:03:22;28.00;64.80
1355;DHT22;671;48.972;9.276;2023-07-20T13:05:48;28.20;65.00
1355;DHT22;671;48.972;9.276;2023-07-20T13:08:15;28.10;63.20
1355;DHT22;671;48.972;9.276;2023-07-20T13:10:42;27.80;63.20
1355;DHT22;671;48.972;9.276;2023-07-20T13:13:09;27.60;63.60
1355;DHT22;671;48.972;9.276;2023-07-20T13:15:44;27.70;64.60
1355;DHT22;671;48.972;9.276;2023-07-20T13:18:10;27.80;65.10
1355;DHT22;671;48.972;9.276;2023-07-20T13:20:37;27.90;65.40
1355;DHT22;671;48.972;9.276;2023-07-20T13:23:04;28.00;64.10
1355;DHT22;671;48.972;9.276;2023-07-20T13:25:31;28.10;63.40
1355;DHT22;671;48.972;9.276;2023-07-20T13:27:58;28.10;62.60
1355;DHT22;671;48.972;9.276;2023-07-20T13:30:24;27.90;63.00
1355;DHT22;671;48.972;9.276;2023-07-20T13:32:51;27.80;63.70
1355;DHT22;671;48.972;9.276;2023-07-20T13:35:17;27.80;63.90
1355;DHT22;671;48.972;9.276;2023-07-20T13:37:44;27.90;65.10
1355;DHT22;671;48.972;9.276;2023-07-20T13:40:10;28.20;62.70
1355;DHT22;671;48.972;9.276;2023-07-20T13:42:39;28.30;62.50
1355;DHT22;671;48.972;9.276;2023-07-20T13:45:09;28.40;62.20
1355;DHT22;671;48.972;9.276;2023-07-20T13:47:35;28.50;60.40
1355;DHT22;671;48.972;9.276;2023-07-20T13:50:02;28.60;62.00
1355;DHT22;671;48.972;9.276;2023-07-20T13:52:28;28.60;61.10
1355;DHT22;671;48.972;9.276;2023-07-20T13:54:55;28.50;60.00
1355;DHT22;671;48.972;9.276;2023-07-20T13:57:22;28.60;62.10
1355;DHT22;671;48.972;9.276;2023-07-20T13:59:48;28.80;62.50
1355;DHT22;671;48.972;9.276;2023-07-20T14:02:15;29.00;61.30
1355;DHT22;671;48.972;9.276;2023-07-20T14:04:42;29.20;59.90
1355;DHT22;671;48.972;9.276;2023-07-20T14:07:08;29.20;59.40
1355;DHT22;671;48.972;9.276;2023-07-20T14:09:35;29.20;60.00
1355;DHT22;671;48.972;9.276;2023-07-20T14:12:01;29.20;61.50
1355;DHT22;671;48.972;9.276;2023-07-20T14:14:27;29.20;59.60
1355;DHT22;671;48.972;9.276;2023-07-20T14:16:54;29.00;61.40
1355;DHT22;671;48.972;9.276;2023-07-20T14:19:22;28.90;61.30
1355;DHT22;671;48.972;9.276;2023-07-20T14:21:48;28.90;60.40
1355;DHT22;671;48.972;9.276;2023-07-20T14:24:15;28.70;59.30
1355;DHT22;671;48.972;9.276;2023-07-20T14:26:41;28.50;60.10
1355;DHT22;671;48.972;9.276;2023-07-20T14:29:08;28.50;60.00
1355;DHT22;671;48.972;9.276;2023-07-20T14:31:34;28.30;60.00
1355;DHT22;671;48.972;9.276;2023-07-20T14:34:01;28.30;60.10
1355;DHT22;671;48.972;9.276;2023-07-20T14:36:27;28.40;60.20
1355;DHT22;671;48.972;9.276;2023-07-20T14:38:54;28.30;61.10
1355;DHT22;671;48.972;9.276;2023-07-20T14:41:20;28.40;60.30
1355;DHT22;671;48.972;9.276;2023-07-20T14:43:47;28.30;60.10
1355;DHT22;671;48.972;9.276;2023-07-20T14:46:14;28.30;60.20
1355;DHT22;671;48.972;9.276;2023-07-20T14:48:41;28.30;60.30
1355;DHT22;671;48.972;9.276;2023-07-20T14:51:07;28.30;58.30
1355;DHT22;671;48.972;9.276;2023-07-20T14:53:34;28.30;60.80
1355;DHT22;671;48.972;9.276;2023-07-20T14:56:01;28.40;60.90
1355;DHT22;671;48.972;9.276;2023-07-20T14:58:28;28.30;61.50
1355;DHT22;671;48.972;9.276;2023-07-20T15:00:54;28.40;61.00
1355;DHT22;671;48.972;9.276;2023-07-20T15:03:23;28.30;59.90
1355;DHT22;671;48.972;9.276;2023-07-20T15:05:49;28.20;61.00
1355;DHT22;671;48.972;9.276;2023-07-20T15:08:18;28.30;60.80
1355;DHT22;671;48.972;9.276;2023-07-20T15:10:45;28.10;61.10
1355;DHT22;671;48.972;9.276;2023-07-20T15:13:13;28.10;62.80
1355;DHT22;671;48.972;9.276;2023-07-20T15:15:39;28.20;61.30
1355;DHT22;671;48.972;9.276;2023-07-20T15:18:06;28.20;60.80
1355;DHT22;671;48.972;9.276;2023-07-20T15:20:32;28.20;59.80
1355;DHT22;671;48.972;9.276;2023-07-20T15:22:59;28.30;61.60
1355;DHT22;671;48.972;9.276;2023-07-20T15:25:26;28.40;60.30
1355;DHT22;671;48.972;9.276;2023-07-20T15:27:52;28.50;60.90
1355;DHT22;671;48.972;9.276;2023-07-20T15:30:19;28.70;60.40
1355;DHT22;671;48.972;9.276;2023-07-20T15:32:45;28.70;60.70
1355;DHT22;671;48.972;9.276;2023-07-20T15:35:12;28.60;59.80
1355;DHT22;671;48.972;9.276;2023-07-20T15:37:41;28.40;59.30
1355;DHT22;671;48.972;9.276;2023-07-20T15:40:08;28.40;60.90
1355;DHT22;671;48.972;9.276;2023-07-20T15:42:34;28.30;60.80
1355;DHT22;671;48.972;9.276;2023-07-20T15:45:01;28.30;59.70
1355;DHT22;671;48.972;9.276;2023-07-20T15:47:27;28.30;58.00
1355;DHT22;671;48.972;9.276;2023-07-20T15:49:54;28.40;59.00
1355;DHT22;671;48.972;9.276;2023-07-20T15:52:20;28.50;60.00
1355;DHT22;671;48.972;9.276;2023-07-20T15:54:47;28.50;58.30
1355;DHT22;671;48.972;9.276;2023-07-20T15:57:13;28.40;58.60
1355;DHT22;671;48.972;9.276;2023-07-20T15:59:40;28.40;56.60
1355;DHT22;671;48.972;9.276;2023-07-20T16:02:07;28.30;58.10
1355;DHT22;671;48.972;9.276;2023-07-20T16:04:33;28.30;58.70
1355;DHT22;671;48.972;9.276;2023-07-20T16:07:00;28.20;59.60
1355;DHT22;671;48.972;9.276;2023-07-20T16:09:26;28.20;59.00
1355;DHT22;671;48.972;9.276;2023-07-20T16:11:53;28.10;58.70
1355;DHT22;671;48.972;9.276;2023-07-20T16:14:19;28.00;58.60
1355;DHT22;671;48.972;9.276;2023-07-20T16:16:46;27.90;59.30
1355;DHT22;671;48.972;9.276;2023-07-20T16:19:12;27.90;59.50
1355;DHT22;671;48.972;9.276;2023-07-20T16:21:39;27.90;59.50
1355;DHT22;671;48.972;9.276;2023-07-20T16:24:06;27.80;59.30
1355;DHT22;671;48.972;9.276;2023-07-20T16:26:32;27.80;57.40
1355;DHT22;671;48.972;9.276;2023-07-20T16:28:59;27.70;57.10
1355;DHT22;671;48.972;9.276;2023-07-20T16:31:25;27.60;56.90
1355;DHT22;671;48.972;9.276;2023-07-20T16:33:52;27.60;57.10
1355;DHT22;671;48.972;9.276;2023-07-20T16:36:18;27.60;58.20
1355;DHT22;671;48.972;9.276;2023-07-20T16:38:45;27.70;58.70